Time;durP1;ratioP1;P1;durP2;ratioP2;P2;SDS_P1;SDS_P2;PMS_P1;PMS_P2;Temp;Humidity;BMP_temperature;BMP_pressure;BME280_temperature;BME280_humidity;BME280_pressure;Samples;Min_cycle;Max_cycle;Signal;HPM_P1;HPM_P2
2022/10/11 00:00:18;;;;;;;12.25;2.45;;;8.10;90.80;;;;;;5035565;28;20045;-59
2022/10/11 00:02:49;;;;;;;11.25;2.28;;;8.10;90.90;;;;;;5017725;28;20061;-59
2022/10/11 00:05:17;;;;;;;11.45;2.22;;;8.10;90.80;;;;;;5047586;28;20044;-59
2022/10/11 00:07:43;;;;;;;10.85;3.65;;;8.00;90.80;;;;;;5055262;28;20017;-59
2022/10/11 00:10:11;;;;;;;10.77;2.55;;;8.10;90.80;;;;;;5053687;28;20090;-56
2022/10/11 00:12:37;;;;;;;13.68;3.45;;;8.00;90.80;;;;;;5055041;28;20035;-59
2022/10/11 00:15:09;;;;;;;9.38;2.35;;;8.00;90.90;;;;;;5023544;28;20128;-59
2022/10/11 00:17:36;;;;;;;11.55;2.50;;;8.00;91.00;;;;;;5002246;28;20418;-61
2022/10/11 00:20:03;;;;;;;12.15;3.13;;;8.10;91.30;;;;;;5035014;28;20075;-66
2022/10/11 00:22:28;;;;;;;13.23;2.92;;;8.20;91.40;;;;;;5035216;28;20087;-63
2022/10/11 00:25:01;;;;;;;19.25;5.40;;;8.30;91.60;;;;;;5034362;28;20075;-61
2022/10/11 00:27:27;;;;;;;9.00;2.47;;;8.40;91.80;;;;;;5053903;28;20119;-59
2022/10/11 00:29:54;;;;;;;13.40;3.03;;;8.50;91.90;;;;;;5054533;28;20116;-58
2022/10/11 00:32:21;;;;;;;12.82;2.60;;;8.50;91.90;;;;;;5054532;28;20086;-59
2022/10/11 00:34:48;;;;;;;15.80;3.28;;;8.60;91.80;;;;;;5054586;28;20025;-59
2022/10/11 00:37:15;;;;;;;11.05;2.30;;;8.60;91.80;;;;;;5053003;28;20418;-59
2022/10/11 00:39:41;;;;;;;12.85;2.92;;;8.60;91.60;;;;;;5053648;28;20044;-59
2022/10/11 00:42:16;;;;;;;7.05;2.25;;;8.60;91.40;;;;;;5053352;28;20037;-60
2022/10/11 00:44:48;;;;;;;11.23;2.42;;;8.50;91.40;;;;;;5054430;28;20454;-58
2022/10/11 00:47:25;;;;;;;11.70;2.50;;;8.50;91.40;;;;;;5020465;28;20064;-57
2022/10/11 00:50:02;;;;;;;16.88;3.58;;;8.40;91.20;;;;;;5036070;28;20040;-60
2022/10/11 00:52:49;;;;;;;10.38;2.10;;;8.40;91.20;;;;;;5054312;28;20029;-60
2022/10/11 00:55:19;;;;;;;9.80;2.70;;;8.30;91.10;;;;;;5053405;28;20036;-60
2022/10/11 00:57:51;;;;;;;8.52;2.22;;;8.30;91.20;;;;;;5019411;28;20346;-59
2022/10/11 01:00:18;;;;;;;9.07;2.83;;;8.20;91.10;;;;;;5037084;28;20025;-60
2022/10/11 01:02:46;;;;;;;12.90;3.05;;;8.20;91.20;;;;;;5023149;28;20033;-60
2022/10/11 01:05:16;;;;;;;11.50;2.72;;;8.10;91.00;;;;;;5016794;28;20359;-59
2022/10/11 01:07:46;;;;;;;14.50;3.67;;;8.00;91.10;;;;;;5015913;28;20049;-60
2022/10/11 01:10:12;;;;;;;13.88;2.25;;;7.90;91.10;;;;;;5035347;28;20520;-60
2022/10/11 01:13:05;;;;;;;7.03;1.92;;;7.90;91.20;;;;;;5054091;28;20492;-60
2022/10/11 01:16:04;;;;;;;13.95;4.43;;;7.90;91.20;;;;;;5017525;28;20103;-60
2022/10/11 01:19:01;;;;;;;8.52;2.42;;;7.90;91.20;;;;;;5053121;28;20048;-60
2022/10/11 01:21:57;;;;;;;6.93;1.95;;;7.90;91.10;;;;;;5053886;28;20079;-60
2022/10/11 01:24:54;;;;;;;14.82;3.20;;;7.80;91.00;;;;;;5051811;28;20052;-58
2022/10/11 01:27:51;;;;;;;10.38;2.35;;;7.80;91.00;;;;;;5053708;28;20041;-59
2022/10/11 01:30:36;;;;;;;18.42;2.78;;;7.70;91.10;;;;;;5053661;28;20044;-60
2022/10/11 01:33:31;;;;;;;11.95;2.58;;;7.60;91.00;;;;;;5052361;28;20441;-60
2022/10/11 01:36:28;;;;;;;9.93;2.42;;;7.60;91.10;;;;;;5052548;28;20033;-60
2022/10/11 01:39:29;;;;;;;8.30;2.28;;;7.60;91.10;;;;;;5051641;28;20045;-60
2022/10/11 01:42:02;;;;;;;8.35;2.30;;;7.60;90.90;;;;;;5033674;28;20072;-59
2022/10/11 01:44:29;;;;;;;10.10;2.50;;;7.50;90.90;;;;;;5046203;28;20052;-60
2022/10/11 01:46:55;;;;;;;11.10;2.65;;;7.50;90.90;;;;;;5053370;28;20028;-60
2022/10/11 01:49:21;;;;;;;15.77;3.55;;;7.50;90.90;;;;;;5052086;28;20037;-60
2022/10/11 01:51:52;;;;;;;8.38;2.20;;;7.50;90.90;;;;;;5035875;28;20112;-58
2022/10/11 01:54:55;;;;;;;7.90;2.38;;;7.40;90.90;;;;;;5018713;28;20444;-60
2022/10/11 01:57:59;;;;;;;7.28;1.92;;;7.40;91.00;;;;;;5030710;28;20025;-58
2022/10/11 02:00:44;;;;;;;10.05;2.25;;;7.40;91.00;;;;;;5033290;28;20025;-60
2022/10/11 02:04:02;;;;;;;8.23;2.30;;;7.30;91.10;;;;;;5052680;28;20021;-59
2022/10/11 02:07:03;;;;;;;13.80;2.83;;;7.30;91.10;;;;;;5030531;28;20465;-58
2022/10/11 02:09:59;;;;;;;10.25;3.28;;;7.30;91.20;;;;;;5024409;28;20057;-60
2022/10/11 02:12:32;;;;;;;12.90;2.38;;;7.30;91.10;;;;;;5052001;28;20404;-58
2022/10/11 02:15:05;;;;;;;8.32;2.88;;;7.20;90.90;;;;;;5018942;28;20095;-60
2022/10/11 02:17:39;;;;;;;13.95;3.25;;;7.20;91.00;;;;;;5035100;28;20095;-60
2022/10/11 02:20:20;;;;;;;10.75;2.50;;;7.20;90.90;;;;;;5036148;28;20049;-59
2022/10/11 02:22:53;;;;;;;15.77;2.40;;;7.10;91.00;;;;;;5037964;28;20450;-59
2022/10/11 02:25:28;;;;;;;12.55;2.97;;;7.20;91.00;;;;;;5020313;28;20140;-57
2022/10/11 02:27:58;;;;;;;10.95;2.20;;;7.10;91.00;;;;;;5036006;28;20025;-60
2022/10/11 02:30:37;;;;;;;8.90;2.20;;;7.10;91.00;;;;;;5003488;28;20119;-59
2022/10/11 02:33:08;;;;;;;6.85;2.05;;;7.10;90.80;;;;;;5037524;28;20045;-60
2022/10/11 02:35:40;;;;;;;8.45;1.95;;;7.10;90.90;;;;;;5003102;28;20513;-58
2022/10/11 02:38:19;;;;;;;12.20;2.20;;;7.10;91.00;;;;;;5045403;28;20466;-60
2022/10/11 02:40:55;;;;;;;13.48;2.78;;;7.10;91.00;;;;;;5039363;28;20376;-60
2022/10/11 02:43:45;;;;;;;7.88;2.42;;;7.10;90.90;;;;;;5039127;28;20041;-59
2022/10/11 02:46:12;;;;;;;12.43;2.42;;;7.10;90.90;;;;;;5054233;28;20032;-57
2022/10/11 02:48:39;;;;;;;7.75;2.03;;;7.10;90.90;;;;;;5039307;28;20029;-59
2022/10/11 02:51:11;;;;;;;8.18;1.80;;;7.10;90.90;;;;;;5056563;28;20112;-60
2022/10/11 02:53:42;;;;;;;12.35;2.67;;;7.00;90.80;;;;;;5020107;28;20610;-59
2022/10/11 02:56:09;;;;;;;15.73;3.63;;;7.00;90.70;;;;;;5056395;28;20087;-59
2022/10/11 02:58:39;;;;;;;8.85;1.75;;;7.00;90.60;;;;;;5055630;28;20059;-60
2022/10/11 03:01:07;;;;;;;10.63;2.00;;;7.00;90.80;;;;;;5055405;28;20350;-59
2022/10/11 03:03:35;;;;;;;12.05;2.55;;;6.90;90.80;;;;;;5056201;28;20064;-57
2022/10/11 03:06:06;;;;;;;11.77;1.88;;;7.00;90.90;;;;;;5056574;28;20373;-57
2022/10/11 03:08:31;;;;;;;13.25;2.53;;;7.00;91.10;;;;;;5054866;28;20099;-59
2022/10/11 03:10:58;;;;;;;12.05;1.88;;;7.00;91.00;;;;;;5056227;28;20037;-60
2022/10/11 03:13:25;;;;;;;8.43;1.85;;;7.00;91.00;;;;;;5038520;28;20071;-59
2022/10/11 03:15:53;;;;;;;9.85;2.00;;;7.10;91.00;;;;;;5034024;28;20033;-57
2022/10/11 03:18:19;;;;;;;11.55;2.15;;;7.10;91.00;;;;;;5018387;28;20025;-59
2022/10/11 03:20:46;;;;;;;6.95;2.10;;;7.20;91.00;;;;;;5038411;28;20047;-59
2022/10/11 03:23:13;;;;;;;9.35;2.40;;;7.20;91.10;;;;;;5055109;28;20029;-59
2022/10/11 03:25:43;;;;;;;9.77;2.20;;;7.20;91.00;;;;;;5055920;28;20056;-59
2022/10/11 03:28:09;;;;;;;6.43;2.05;;;7.30;91.00;;;;;;5020617;28;20462;-56
2022/10/11 03:30:37;;;;;;;9.18;1.88;;;7.30;91.00;;;;;;5055820;28;20029;-57
2022/10/11 03:33:04;;;;;;;9.50;3.20;;;7.20;91.00;;;;;;5054368;28;20104;-58
2022/10/11 03:35:31;;;;;;;5.80;2.00;;;7.20;90.90;;;;;;5054734;28;20090;-59
2022/10/11 03:38:03;;;;;;;7.82;2.65;;;7.20;91.00;;;;;;5054801;28;20504;-59
2022/10/11 03:40:32;;;;;;;7.07;2.00;;;7.20;90.90;;;;;;5054763;28;20053;-58
2022/10/11 03:43:05;;;;;;;7.80;1.75;;;7.20;90.70;;;;;;5055435;28;20043;-59
2022/10/11 03:45:32;;;;;;;6.18;2.72;;;7.20;90.60;;;;;;5055626;28;20021;-59
2022/10/11 03:47:59;;;;;;;27.77;3.28;;;7.10;90.60;;;;;;5037476;28;20025;-59
2022/10/11 03:50:27;;;;;;;6.78;2.05;;;7.10;90.60;;;;;;5055840;28;20025;-57
2022/10/11 03:52:53;;;;;;;11.13;2.30;;;7.10;90.60;;;;;;5053309;28;20056;-57
2022/10/11 03:55:20;;;;;;;9.10;2.65;;;7.10;90.60;;;;;;5055403;28;20067;-59
2022/10/11 03:57:48;;;;;;;11.43;2.15;;;7.00;90.50;;;;;;5055385;28;20071;-59
2022/10/11 04:00:16;;;;;;;15.52;2.08;;;7.00;90.50;;;;;;5054484;28;20060;-58
2022/10/11 04:02:43;;;;;;;11.90;3.10;;;6.90;90.40;;;;;;5055111;28;20064;-58
2022/10/11 04:05:11;;;;;;;7.50;2.88;;;6.90;90.60;;;;;;5055285;28;20432;-58
2022/10/11 04:07:39;;;;;;;8.70;1.95;;;6.90;90.70;;;;;;5048742;28;20069;-56
2022/10/11 04:10:05;;;;;;;8.82;2.28;;;6.90;90.70;;;;;;5034337;28;20017;-59
2022/10/11 04:12:35;;;;;;;11.30;2.55;;;6.90;90.60;;;;;;5037032;28;20502;-58
2022/10/11 04:15:01;;;;;;;11.80;2.35;;;6.90;90.70;;;;;;5038280;28;20500;-58
2022/10/11 04:17:26;;;;;;;13.45;2.42;;;6.90;90.50;;;;;;5053528;28;20104;-59
2022/10/11 04:19:53;;;;;;;8.80;1.80;;;6.90;90.60;;;;;;5054871;28;20032;-59
2022/10/11 04:22:20;;;;;;;6.38;2.17;;;6.90;90.60;;;;;;5035566;28;20448;-56
2022/10/11 04:24:49;;;;;;;16.08;2.53;;;6.90;90.70;;;;;;5037078;28;20120;-59
2022/10/11 04:27:18;;;;;;;7.60;1.77;;;6.90;90.70;;;;;;5054595;28;20044;-59
2022/10/11 04:29:45;;;;;;;11.20;2.72;;;7.00;90.90;;;;;;5036157;28;20422;-59
2022/10/11 04:32:13;;;;;;;16.77;2.40;;;7.10;91.00;;;;;;5053586;28;20166;-57
2022/10/11 04:34:41;;;;;;;19.02;3.00;;;7.10;91.10;;;;;;5036677;28;20104;-59
2022/10/11 04:37:07;;;;;;;14.90;2.60;;;7.20;91.00;;;;;;5044444;28;20061;-58
2022/10/11 04:39:34;;;;;;;12.77;2.88;;;7.20;90.90;;;;;;5024717;28;20036;-59
2022/10/11 04:42:03;;;;;;;11.48;3.08;;;7.30;91.10;;;;;;5053864;28;20024;-59
2022/10/11 04:44:32;;;;;;;8.63;2.50;;;7.30;91.10;;;;;;5053412;28;20462;-56
2022/10/11 04:46:59;;;;;;;10.88;2.30;;;7.30;91.10;;;;;;5036490;28;20485;-57
2022/10/11 04:49:25;;;;;;;7.03;2.67;;;7.40;91.10;;;;;;5052658;28;20025;-59
2022/10/11 04:51:53;;;;;;;9.50;2.28;;;7.40;91.20;;;;;;5052141;28;20048;-59
2022/10/11 04:54:22;;;;;;;6.90;2.47;;;7.40;91.10;;;;;;5054342;28;20112;-59
2022/10/11 04:56:49;;;;;;;7.70;2.30;;;7.40;91.00;;;;;;5035510;28;20367;-59
2022/10/11 04:59:16;;;;;;;9.23;1.70;;;7.40;91.00;;;;;;5053364;28;20021;-58
2022/10/11 05:01:48;;;;;;;12.93;2.45;;;7.30;90.80;;;;;;5015827;28;20069;-58
2022/10/11 05:04:16;;;;;;;9.98;2.13;;;7.30;90.80;;;;;;5033315;28;20064;-59
2022/10/11 05:06:44;;;;;;;12.82;3.22;;;7.30;90.90;;;;;;5046045;28;20037;-59
2022/10/11 05:09:12;;;;;;;9.88;2.20;;;7.30;90.90;;;;;;5053916;28;20049;-58
2022/10/11 05:11:39;;;;;;;12.30;3.28;;;7.30;90.90;;;;;;5053093;28;20064;-59
2022/10/11 05:14:06;;;;;;;10.27;2.35;;;7.30;91.00;;;;;;5049327;28;20124;-59
2022/10/11 05:16:34;;;;;;;8.23;2.55;;;7.20;90.90;;;;;;5033729;28;20021;-59
2022/10/11 05:19:01;;;;;;;11.93;2.47;;;7.20;90.90;;;;;;5006571;28;20062;-57
2022/10/11 05:21:29;;;;;;;11.65;2.60;;;7.20;90.90;;;;;;5052969;28;20025;-59
2022/10/11 05:23:57;;;;;;;11.88;2.35;;;7.10;90.90;;;;;;5019565;28;20037;-59
2022/10/11 05:26:34;;;;;;;10.43;2.25;;;7.10;90.90;;;;;;5036079;28;20029;-57
2022/10/11 05:29:01;;;;;;;10.18;2.78;;;7.10;91.00;;;;;;5036031;28;20033;-57
2022/10/11 05:31:27;;;;;;;12.45;2.80;;;7.10;91.10;;;;;;5052492;28;20028;-59
2022/10/11 05:33:54;;;;;;;9.27;2.35;;;7.10;91.20;;;;;;5053522;28;20087;-58
2022/10/11 05:36:21;;;;;;;8.70;3.05;;;7.10;91.20;;;;;;5052635;28;20051;-59
2022/10/11 05:38:49;;;;;;;9.98;2.65;;;7.10;91.20;;;;;;5035941;28;20068;-59
2022/10/11 05:41:15;;;;;;;11.07;2.90;;;7.10;91.30;;;;;;5052320;28;20033;-58
2022/10/11 05:43:43;;;;;;;9.77;2.22;;;7.20;91.30;;;;;;5019589;28;20484;-58
2022/10/11 05:46:11;;;;;;;15.02;2.35;;;7.30;91.40;;;;;;5036158;28;20108;-58
2022/10/11 05:48:39;;;;;;;5.30;1.80;;;7.30;91.50;;;;;;5019459;28;20033;-59
2022/10/11 05:51:08;;;;;;;11.80;4.13;;;7.40;91.50;;;;;;5033603;28;20374;-57
2022/10/11 05:53:35;;;;;;;9.07;2.58;;;7.40;91.60;;;;;;5020544;28;20104;-57
2022/10/11 05:56:02;;;;;;;10.48;2.10;;;7.50;91.50;;;;;;5052657;28;20627;-58
2022/10/11 05:58:31;;;;;;;12.30;2.72;;;7.50;91.50;;;;;;5048302;28;20025;-60
2022/10/11 06:00:59;;;;;;;10.60;3.00;;;7.50;91.40;;;;;;5033277;28;20029;-59
2022/10/11 06:03:25;;;;;;;11.75;2.45;;;7.50;91.40;;;;;;5033184;28;20040;-58
2022/10/11 06:05:51;;;;;;;12.32;2.95;;;7.50;91.40;;;;;;5026919;28;20044;-59
2022/10/11 06:08:19;;;;;;;9.55;2.53;;;7.50;91.40;;;;;;5052069;28;20036;-59
2022/10/11 06:10:47;;;;;;;8.65;3.08;;;7.60;91.40;;;;;;5035486;28;20408;-60
2022/10/11 06:13:16;;;;;;;7.07;2.30;;;7.60;91.50;;;;;;5053056;28;20032;-59
2022/10/11 06:15:43;;;;;;;10.88;2.15;;;7.70;91.50;;;;;;5051975;28;20081;-59
2022/10/11 06:18:08;;;;;;;10.52;3.90;;;7.70;91.40;;;;;;5051634;28;20323;-58
2022/10/11 06:20:35;;;;;;;10.07;2.72;;;7.70;91.50;;;;;;5033185;28;20068;-56
2022/10/11 06:23:03;;;;;;;11.40;2.47;;;7.70;91.40;;;;;;5053058;28;20075;-59
2022/10/11 06:25:30;;;;;;;8.57;2.35;;;7.80;91.40;;;;;;5051882;28;20498;-59
2022/10/11 06:27:57;;;;;;;9.43;2.63;;;7.70;91.40;;;;;;5035318;28;20029;-58
2022/10/11 06:30:24;;;;;;;6.53;2.28;;;7.70;91.40;;;;;;5051848;28;20037;-60
2022/10/11 06:32:49;;;;;;;11.48;3.08;;;7.80;91.40;;;;;;5052783;28;20025;-57
2022/10/11 06:35:16;;;;;;;12.07;4.35;;;7.80;91.30;;;;;;5043700;28;20029;-57
2022/10/11 06:37:42;;;;;;;15.57;3.85;;;7.80;91.30;;;;;;5050356;28;20051;-59
2022/10/11 06:40:09;;;;;;;15.02;3.90;;;7.80;91.30;;;;;;5052667;28;20020;-60
2022/10/11 06:42:35;;;;;;;9.77;3.33;;;7.80;91.30;;;;;;5051726;28;20040;-58
2022/10/11 06:45:01;;;;;;;9.13;2.90;;;7.80;91.30;;;;;;5035528;28;20045;-59
2022/10/11 06:47:31;;;;;;;12.43;3.38;;;7.90;91.20;;;;;;5017357;28;20119;-59
2022/10/11 06:49:57;;;;;;;10.23;1.92;;;7.80;91.10;;;;;;5051757;28;20037;-57
2022/10/11 06:52:25;;;;;;;10.52;2.78;;;7.90;91.20;;;;;;5052836;28;20029;-59
2022/10/11 06:54:55;;;;;;;9.25;2.13;;;7.90;91.00;;;;;;5051537;28;20021;-59
2022/10/11 06:57:21;;;;;;;11.05;2.45;;;7.90;91.00;;;;;;5052524;28;20040;-59
2022/10/11 06:59:49;;;;;;;12.50;2.78;;;7.90;91.00;;;;;;5051511;28;20029;-59
2022/10/11 07:02:15;;;;;;;13.52;3.03;;;7.90;91.00;;;;;;5050872;28;20060;-59
2022/10/11 07:04:41;;;;;;;10.93;2.78;;;7.90;91.00;;;;;;5051593;28;20450;-59
2022/10/11 07:07:09;;;;;;;12.45;2.75;;;8.00;91.00;;;;;;5053352;28;20043;-59
2022/10/11 07:09:36;;;;;;;9.88;2.90;;;8.10;91.00;;;;;;5056564;28;20079;-58
2022/10/11 07:12:04;;;;;;;12.02;2.42;;;8.20;91.00;;;;;;5037815;28;20032;-58
2022/10/11 07:14:30;;;;;;;13.70;2.53;;;8.20;91.00;;;;;;5038694;28;20021;-59
2022/10/11 07:17:00;;;;;;;14.15;2.92;;;8.30;91.00;;;;;;5055440;28;20078;-59
2022/10/11 07:19:27;;;;;;;11.95;3.58;;;8.30;91.00;;;;;;5055212;28;20405;-59
2022/10/11 07:21:53;;;;;;;10.45;3.58;;;8.40;90.90;;;;;;5020922;28;20059;-58
2022/10/11 07:24:20;;;;;;;11.75;4.10;;;8.40;91.00;;;;;;5055583;28;20115;-59
2022/10/11 07:26:47;;;;;;;13.98;3.92;;;8.50;91.00;;;;;;5055587;28;20024;-58
2022/10/11 07:29:14;;;;;;;9.52;3.85;;;8.50;90.90;;;;;;5054621;28;20029;-58
2022/10/11 07:31:41;;;;;;;8.27;2.10;;;8.70;90.90;;;;;;5054674;28;20032;-56
2022/10/11 07:34:08;;;;;;;7.85;2.80;;;8.90;91.00;;;;;;5054758;28;20033;-57
2022/10/11 07:36:35;;;;;;;17.42;3.78;;;9.20;90.90;;;;;;5020329;28;20124;-56
2022/10/11 07:39:05;;;;;;;12.85;3.50;;;9.50;91.00;;;;;;5021049;28;20462;-53
2022/10/11 07:41:34;;;;;;;8.00;3.00;;;9.90;90.70;;;;;;5037320;28;20047;-55
2022/10/11 07:44:02;;;;;;;17.85;2.92;;;10.30;89.80;;;;;;5035273;28;20086;-56
2022/10/11 07:46:32;;;;;;;20.25;3.55;;;10.60;89.20;;;;;;5054304;28;20045;-52
2022/10/11 07:48:58;;;;;;;9.05;2.00;;;10.90;88.20;;;;;;5055588;28;20025;-50
2022/10/11 07:51:25;;;;;;;12.07;2.85;;;11.00;86.60;;;;;;5038205;28;20481;-50
2022/10/11 07:53:56;;;;;;;9.20;2.45;;;11.00;86.10;;;;;;5055488;28;20056;-52
2022/10/11 07:56:30;;;;;;;10.05;3.15;;;11.00;86.10;;;;;;5037075;28;20071;-50
2022/10/11 07:59:00;;;;;;;15.75;4.30;;;10.90;85.70;;;;;;5055339;28;20362;-53
2022/10/11 08:01:27;;;;;;;9.80;2.65;;;11.00;86.10;;;;;;5036766;28;20123;-53
2022/10/11 08:03:55;;;;;;;12.80;4.10;;;11.10;86.70;;;;;;5053073;28;20415;-51
2022/10/11 08:06:28;;;;;;;12.15;3.22;;;11.30;86.60;;;;;;5054019;28;20122;-50
2022/10/11 08:08:58;;;;;;;16.25;4.38;;;11.40;85.90;;;;;;5034250;28;20034;-48
2022/10/11 08:11:27;;;;;;;18.38;4.45;;;11.40;86.00;;;;;;5035001;28;20033;-51
2022/10/11 08:13:58;;;;;;;13.10;3.67;;;11.50;86.30;;;;;;5035717;28;20021;-47
2022/10/11 08:16:29;;;;;;;12.88;3.15;;;11.50;85.90;;;;;;5022365;28;20111;-47
2022/10/11 08:18:56;;;;;;;11.93;3.72;;;11.50;86.20;;;;;;5052987;28;20044;-52
2022/10/11 08:21:25;;;;;;;11.10;2.63;;;11.50;85.50;;;;;;5042507;28;20119;-51
2022/10/11 08:23:53;;;;;;;15.48;3.47;;;11.50;85.70;;;;;;5054936;28;20115;-49
2022/10/11 08:26:21;;;;;;;14.55;3.25;;;11.40;85.20;;;;;;5037129;28;20047;-52
2022/10/11 08:28:49;;;;;;;11.98;3.67;;;11.30;85.30;;;;;;5052797;28;20040;-48
2022/10/11 08:31:17;;;;;;;11.55;3.20;;;11.40;85.90;;;;;;5020858;28;20033;-50
2022/10/11 08:33:43;;;;;;;14.95;4.22;;;11.50;85.90;;;;;;5052567;28;20025;-47
2022/10/11 08:36:12;;;;;;;14.70;3.75;;;11.50;85.50;;;;;;5053623;28;20461;-50
2022/10/11 08:38:40;;;;;;;14.87;3.63;;;11.40;85.30;;;;;;5054013;28;20548;-49
2022/10/11 08:41:29;;;;;;;15.43;3.90;;;11.40;85.70;;;;;;5008702;28;20045;-48
2022/10/11 08:44:22;;;;;;;13.73;2.75;;;11.50;85.80;;;;;;5033804;28;20473;-49
2022/10/11 08:46:56;;;;;;;9.93;2.53;;;11.50;86.00;;;;;;5016906;28;20033;-52
2022/10/11 08:49:31;;;;;;;13.20;3.15;;;11.40;86.00;;;;;;5000843;28;20128;-48
2022/10/11 08:52:03;;;;;;;8.30;2.42;;;11.40;86.20;;;;;;5018526;28;20040;-50
2022/10/11 08:55:02;;;;;;;11.88;3.13;;;11.30;86.20;;;;;;5054423;28;20448;-48
2022/10/11 08:57:32;;;;;;;11.20;2.60;;;11.30;86.10;;;;;;5019263;28;20029;-47
2022/10/11 09:00:17;;;;;;;14.57;3.67;;;11.20;86.50;;;;;;5016892;28;20033;-49
2022/10/11 09:03:11;;;;;;;16.00;3.03;;;11.20;86.90;;;;;;5034017;28;20022;-48
2022/10/11 09:06:16;;;;;;;14.55;2.80;;;11.20;87.40;;;;;;5021033;28;20025;-47
2022/10/11 09:09:07;;;;;;;10.88;2.83;;;11.20;87.70;;;;;;5053364;28;20029;-50
2022/10/11 09:12:07;;;;;;;13.35;3.40;;;11.30;87.80;;;;;;5052951;28;20028;-50
2022/10/11 09:14:51;;;;;;;;;;;11.40;88.00;;;;;;5022932;28;20025;-53
2022/10/11 09:17:51;;;;;;;10.90;3.25;;;11.50;88.40;;;;;;5035729;28;19915;-46
2022/10/11 09:20:34;;;;;;;15.00;3.28;;;11.50;88.10;;;;;;5052522;28;20032;-52
2022/10/11 09:23:24;;;;;;;13.43;2.80;;;11.60;88.20;;;;;;5036009;28;20492;-50
2022/10/11 09:26:31;;;;;;;14.75;3.10;;;11.60;87.80;;;;;;5040781;28;20041;-52
2022/10/11 09:29:21;;;;;;;14.77;3.00;;;11.70;87.80;;;;;;4992054;28;20026;-50
2022/10/11 09:31:57;;;;;;;13.45;2.88;;;11.80;87.80;;;;;;4991827;28;20046;-47
2022/10/11 09:34:31;;;;;;;13.52;3.47;;;12.00;88.10;;;;;;4992306;28;20154;-47
2022/10/11 09:37:20;;;;;;;15.43;2.88;;;12.20;87.80;;;;;;4988810;28;20170;-52
2022/10/11 09:40:04;;;;;;;11.07;2.72;;;12.20;87.10;;;;;;4991299;28;20096;-48
2022/10/11 09:42:32;;;;;;;9.68;2.88;;;12.40;86.90;;;;;;4992122;28;20042;-47
2022/10/11 09:45:01;;;;;;;16.98;3.75;;;12.40;86.00;;;;;;4992208;28;20038;-52
2022/10/11 09:47:31;;;;;;;10.93;2.80;;;12.40;84.20;;;;;;4991821;28;20054;-50
2022/10/11 09:50:02;;;;;;;9.32;2.63;;;12.60;85.00;;;;;;4992250;28;20053;-48
2022/10/11 09:52:41;;;;;;;14.45;2.90;;;12.80;84.40;;;;;;4990792;28;20030;-49
2022/10/11 09:55:45;;;;;;;10.65;2.65;;;12.80;83.70;;;;;;4992062;28;20049;-51
2022/10/11 09:58:33;;;;;;;16.45;2.58;;;12.90;83.50;;;;;;4992079;28;20069;-50
2022/10/11 10:01:10;;;;;;;16.75;4.07;;;13.00;83.30;;;;;;4990975;28;20101;-53
2022/10/11 10:03:40;;;;;;;15.27;3.17;;;13.00;83.10;;;;;;5036978;28;20041;-51
2022/10/11 10:06:32;;;;;;;9.80;3.45;;;13.00;82.90;;;;;;5027407;28;20039;-49
2022/10/11 10:09:21;;;;;;;14.88;3.70;;;13.20;83.50;;;;;;5032587;28;20025;-48
2022/10/11 10:11:50;;;;;;;10.43;2.72;;;13.40;83.30;;;;;;5032174;28;20450;-50
2022/10/11 10:14:39;;;;;;;10.82;3.38;;;13.60;83.00;;;;;;5031934;28;20061;-52
2022/10/11 10:17:13;;;;;;;12.13;3.95;;;13.80;81.40;;;;;;5032105;28;20346;-48
2022/10/11 10:19:47;;;;;;;13.35;3.13;;;14.20;81.90;;;;;;5000733;28;20535;-48
2022/10/11 10:22:19;;;;;;;12.70;3.65;;;14.40;81.10;;;;;;5028341;28;20048;-49
2022/10/11 10:24:46;;;;;;;13.27;3.00;;;14.40;78.50;;;;;;5014577;28;20041;-49
2022/10/11 10:27:29;;;;;;;14.52;4.05;;;14.50;78.00;;;;;;5031130;28;20032;-49
2022/10/11 10:30:25;;;;;;;13.38;2.92;;;14.70;79.00;;;;;;4999174;28;20451;-48
2022/10/11 10:33:05;;;;;;;17.02;5.03;;;14.90;78.20;;;;;;5013177;28;20447;-47
2022/10/11 10:35:59;;;;;;;9.57;2.42;;;14.90;77.80;;;;;;5010731;28;20038;-50
2022/10/11 10:38:33;;;;;;;18.90;3.85;;;15.10;79.10;;;;;;5015266;28;20069;-49
2022/10/11 10:41:11;;;;;;;9.75;2.25;;;15.10;77.30;;;;;;5013521;28;20034;-49
2022/10/11 10:43:41;;;;;;;13.27;2.80;;;15.20;78.50;;;;;;4999685;28;20033;-49
2022/10/11 10:46:22;;;;;;;9.02;2.90;;;15.30;76.50;;;;;;4999640;28;20386;-51
2022/10/11 10:49:21;;;;;;;11.07;3.17;;;15.30;76.40;;;;;;5016995;28;20057;-52
2022/10/11 10:52:05;;;;;;;12.00;2.60;;;15.30;75.10;;;;;;5048911;28;20044;-50
2022/10/11 10:55:00;;;;;;;13.85;2.85;;;15.40;75.70;;;;;;5056915;28;20671;-49
2022/10/11 10:57:59;;;;;;;9.38;2.65;;;15.40;73.60;;;;;;5036893;28;20041;-51
2022/10/11 11:00:38;;;;;;;11.00;2.55;;;15.10;74.10;;;;;;5026293;28;20037;-49
2022/10/11 11:03:31;;;;;;;10.82;3.08;;;15.10;75.40;;;;;;5019095;28;20037;-47
2022/10/11 11:06:05;;;;;;;9.88;3.03;;;15.00;73.70;;;;;;5043543;28;20027;-47
2022/10/11 11:08:51;;;;;;;7.75;2.08;;;14.90;74.40;;;;;;5034247;28;20037;-48
2022/10/11 11:11:57;;;;;;;11.43;2.72;;;14.90;74.30;;;;;;5036542;28;20037;-46
2022/10/11 11:14:42;;;;;;;11.57;2.55;;;15.20;74.80;;;;;;5035293;28;20026;-48
2022/10/11 11:17:41;;;;;;;14.23;3.03;;;15.30;75.60;;;;;;5035504;28;20034;-45
2022/10/11 11:20:40;;;;;;;11.32;3.08;;;15.50;74.20;;;;;;5041348;28;20048;-46
2022/10/11 11:23:33;;;;;;;10.43;2.10;;;16.00;72.40;;;;;;5052581;28;20782;-51
2022/10/11 11:26:12;;;;;;;11.73;2.58;;;15.90;72.20;;;;;;5036178;28;20036;-45
2022/10/11 11:28:55;;;;;;;10.27;2.33;;;15.70;71.50;;;;;;5016539;28;20030;-44
2022/10/11 11:31:59;;;;;;;9.23;2.30;;;15.30;72.00;;;;;;5045554;28;20037;-51
2022/10/11 11:34:45;;;;;;;9.07;1.73;;;14.90;72.40;;;;;;5034604;28;20032;-49
2022/10/11 11:37:40;;;;;;;12.77;2.58;;;14.50;73.70;;;;;;5023147;28;20473;-46
2022/10/11 11:40:45;;;;;;;13.40;2.85;;;14.30;75.00;;;;;;5054105;28;20090;-47
2022/10/11 11:43:34;;;;;;;10.27;1.90;;;14.20;76.00;;;;;;5029534;28;20116;-49
2022/10/11 11:46:13;;;;;;;8.95;1.90;;;14.10;76.70;;;;;;5038522;28;20028;-46
2022/10/11 11:48:45;;;;;;;10.50;2.67;;;13.90;77.50;;;;;;5011931;28;20037;-47
2022/10/11 11:51:19;;;;;;;23.92;2.78;;;13.90;77.90;;;;;;5007535;28;20041;-51
2022/10/11 11:54:22;;;;;;;13.88;2.00;;;13.80;78.00;;;;;;5037158;28;20476;-46
2022/10/11 11:57:27;;;;;;;10.68;1.90;;;13.90;78.20;;;;;;5054159;28;20033;-49
2022/10/11 12:00:14;;;;;;;11.57;1.95;;;14.10;78.10;;;;;;5022285;28;20033;-45
2022/10/11 12:03:15;;;;;;;13.20;2.30;;;14.30;77.50;;;;;;5037723;28;20041;-47
2022/10/11 12:06:13;;;;;;;14.35;2.72;;;14.50;76.10;;;;;;5053793;28;20040;-44
2022/10/11 12:09:00;;;;;;;12.35;3.33;;;14.80;76.20;;;;;;5053871;28;20458;-46
2022/10/11 12:11:51;;;;;;;6.25;1.33;;;15.00;75.50;;;;;;5055574;28;20029;-45
2022/10/11 12:14:26;;;;;;;7.45;1.85;;;14.80;72.90;;;;;;5054086;28;20481;-45
2022/10/11 12:17:23;;;;;;;11.45;2.35;;;14.70;74.20;;;;;;5054187;28;20107;-45
2022/10/11 12:20:02;;;;;;;12.63;2.72;;;14.70;73.50;;;;;;5046383;28;20029;-49
2022/10/11 12:22:36;;;;;;;10.38;2.28;;;14.80;73.00;;;;;;5053639;28;20036;-48
2022/10/11 12:25:08;;;;;;;10.52;3.42;;;15.00;73.70;;;;;;5054811;28;20025;-46
2022/10/11 12:27:47;;;;;;;8.48;2.15;;;15.20;73.20;;;;;;5054717;28;20025;-45
2022/10/11 12:30:49;;;;;;;9.15;2.30;;;15.20;73.20;;;;;;5052828;28;20057;-48
2022/10/11 12:33:31;;;;;;;11.25;2.30;;;15.40;73.10;;;;;;5054910;28;20120;-46
2022/10/11 12:36:21;;;;;;;5.45;1.67;;;15.40;72.80;;;;;;5031203;28;20040;-48
2022/10/11 12:39:34;;;;;;;8.02;1.92;;;15.50;73.70;;;;;;5036762;28;20826;-46
2022/10/11 12:42:34;;;;;;;7.90;2.28;;;15.30;71.80;;;;;;5035492;28;20041;-46
2022/10/11 12:45:21;;;;;;;;;;;15.30;72.70;;;;;;5054112;28;20059;-47
2022/10/11 12:48:15;;;;;;;12.93;2.35;;;15.10;74.10;;;;;;5018422;28;20408;-47
2022/10/11 12:51:17;;;;;;;8.13;2.00;;;15.00;73.20;;;;;;5025697;28;20033;-46
2022/10/11 12:54:04;;;;;;;10.30;2.70;;;14.90;74.10;;;;;;5036138;28;20029;-51
2022/10/11 12:56:54;;;;;;;7.63;1.92;;;14.90;74.70;;;;;;5054247;28;20021;-47
2022/10/11 12:59:24;;;;;;;11.00;2.65;;;14.70;74.20;;;;;;5052274;28;20033;-49
2022/10/11 13:01:59;;;;;;;9.80;2.00;;;14.80;75.30;;;;;;5004111;28;20037;-49
2022/10/11 13:04:30;;;;;;;10.57;2.15;;;14.90;74.30;;;;;;5035423;28;20036;-48
2022/10/11 13:07:03;;;;;;;9.18;1.98;;;14.90;74.00;;;;;;5012368;28;20046;-51
2022/10/11 13:09:52;;;;;;;13.23;3.15;;;14.90;73.80;;;;;;5032654;28;20116;-50
2022/10/11 13:12:43;;;;;;;8.18;2.42;;;14.90;75.30;;;;;;5033469;28;20033;-53
2022/10/11 13:15:15;;;;;;;13.52;2.47;;;14.90;75.10;;;;;;5019105;28;20068;-47
2022/10/11 13:17:42;;;;;;;9.50;3.00;;;14.90;74.20;;;;;;5035391;28;21829;-51
2022/10/11 13:20:33;;;;;;;7.75;1.88;;;15.00;75.20;;;;;;5034163;28;20143;-49
2022/10/11 13:23:00;;;;;;;6.80;1.58;;;15.10;74.80;;;;;;5038428;28;20380;-50
2022/10/11 13:25:45;;;;;;;8.15;1.90;;;15.20;74.50;;;;;;5052311;28;20040;-48
2022/10/11 13:28:13;;;;;;;11.60;2.30;;;15.30;74.50;;;;;;5036285;28;20598;-49